NCAR-RAP Real-Time Weather Data

Output produced by METARs form (24 July 2017  08:53 UTC)
found at http://weather.rap.ucar.edu/surface/
 
Conditions at: KGIF observed 24 July 2017  07:53 UTC
Temperature: 25.0°C (77°F)
Dewpoint: 22.8°C (73°F) [RH = 88%]
Pressure (altimeter): 30.02 inches Hg (1016.7 mb)
[Sea-level pressure: 1016.4 mb]
Winds: from the SSW (200 degrees) at 5 MPH (4 knots; 2.1 m/s)
Visibility: 10 or more miles (16+ km)
Ceiling: at least 12,000 feet AGL
Clouds: sky clear below 12,000 feet AGL
Present Weather: automated observation with no human augmentation;
there may or may not be significant weather present at this time
KGIF 240753Z AUTO 20004KT 10SM CLR 25/23 A3002 RMK AO2 SLP164 T02500228

Conditions at: KGIF observed 24 July 2017  06:53 UTC
Temperature: 25.6°C (78°F)
Dewpoint: 22.8°C (73°F) [RH = 85%]
Pressure (altimeter): 30.04 inches Hg (1017.4 mb)
[Sea-level pressure: 1017.1 mb]
Winds: from the S (180 degrees) at 3 MPH (3 knots; 1.6 m/s)
Visibility: 10 or more miles (16+ km)
Ceiling: at least 12,000 feet AGL
Clouds: sky clear below 12,000 feet AGL
Present Weather: automated observation with no human augmentation;
there may or may not be significant weather present at this time
KGIF 240653Z AUTO 18003KT 10SM CLR 26/23 A3004 RMK AO2 SLP171 T02560228

Conditions at: KGIF observed 24 July 2017  05:53 UTC
Temperature: 25.6°C (78°F)
Dewpoint: 23.3°C (74°F) [RH = 87%]
Pressure (altimeter): 30.05 inches Hg (1017.7 mb)
[Sea-level pressure: 1017.2 mb]
Winds: from the S (190 degrees) at 3 MPH (3 knots; 1.6 m/s)
Visibility: 10 or more miles (16+ km)
Ceiling: at least 12,000 feet AGL
Clouds: sky clear below 12,000 feet AGL
Present Weather: automated observation with no human augmentation;
there may or may not be significant weather present at this time
KGIF 240553Z AUTO 19003KT 10SM CLR 26/23 A3005 RMK AO2 SLP172 T02560233 10267 20244 58001

Conditions at: KGIF observed 24 July 2017  04:53 UTC
Temperature: 26.1°C (79°F)
Dewpoint: 23.9°C (75°F) [RH = 88%]
Pressure (altimeter): 30.07 inches Hg (1018.4 mb)
[Sea-level pressure: 1017.9 mb]
Winds: from the SE (140 degrees) at 3 MPH (3 knots; 1.6 m/s)
Visibility: 10 or more miles (16+ km)
Ceiling: at least 12,000 feet AGL
Clouds: sky clear below 12,000 feet AGL
Present Weather: automated observation with no human augmentation;
there may or may not be significant weather present at this time
KGIF 240453Z AUTO 14003KT 10SM CLR 26/24 A3007 RMK AO2 SLP179 T02610239 402720244

Conditions at: KGIF observed 24 July 2017  03:53 UTC
Temperature: 25.6°C (78°F)
Dewpoint: 23.9°C (75°F) [RH = 90%]
Pressure (altimeter): 30.07 inches Hg (1018.4 mb)
[Sea-level pressure: 1018.0 mb]
Winds: from the ESE (120 degrees) at 3 MPH (3 knots; 1.6 m/s)
Visibility: 10 or more miles (16+ km)
Ceiling: at least 12,000 feet AGL
Clouds: sky clear below 12,000 feet AGL
Present Weather: automated observation with no human augmentation;
there may or may not be significant weather present at this time
KGIF 240353Z AUTO 12003KT 10SM CLR 26/24 A3007 RMK AO2 SLP180 T02560239

Conditions at: KGIF observed 24 July 2017  02:53 UTC
Temperature: 25.6°C (78°F)
Dewpoint: 23.3°C (74°F) [RH = 87%]
Pressure (altimeter): 30.05 inches Hg (1017.7 mb)
[Sea-level pressure: 1017.2 mb]
Winds: calm
Visibility: 10 or more miles (16+ km)
Ceiling: at least 12,000 feet AGL
Clouds: sky clear below 12,000 feet AGL
Present Weather: automated observation with no human augmentation;
there may or may not be significant weather present at this time
KGIF 240253Z AUTO 00000KT 10SM CLR 26/23 A3005 RMK AO2 SLP172 T02560233 53014

Conditions at: KGIF observed 24 July 2017  01:53 UTC
Temperature: 25.6°C (78°F)
Dewpoint: 23.3°C (74°F) [RH = 87%]
Pressure (altimeter): 30.03 inches Hg (1017.0 mb)
[Sea-level pressure: 1016.7 mb]
Winds: from the NW (320 degrees) at 5 MPH (4 knots; 2.1 m/s)
Visibility: 10 or more miles (16+ km)
Ceiling: at least 12,000 feet AGL
Clouds: sky clear below 12,000 feet AGL
Present Weather: automated observation with no human augmentation;
there may or may not be significant weather present at this time
KGIF 240153Z AUTO 32004KT 10SM CLR 26/23 A3003 RMK AO2 SLP167 T02560233

Conditions at: KGIF observed 24 July 2017  00:53 UTC
Temperature: 26.7°C (80°F)
Dewpoint: 23.3°C (74°F) [RH = 82%]
Pressure (altimeter): 30.00 inches Hg (1016.0 mb)
[Sea-level pressure: 1015.7 mb]
Winds: from the SSW (200 degrees) at 5 MPH (4 knots; 2.1 m/s)
Visibility: 10 or more miles (16+ km)
Ceiling: at least 12,000 feet AGL
Clouds: sky clear below 12,000 feet AGL
Present Weather: automated observation with no human augmentation;
there may or may not be significant weather present at this time
KGIF 240053Z AUTO 20004KT 10SM CLR 27/23 A3000 RMK AO2 SLP157 T02670233

Conditions at: KGIF observed 23 July 2017  23:53 UTC
Temperature: 27.2°C (81°F)
Dewpoint: 22.8°C (73°F) [RH = 77%]
Pressure (altimeter): 30.00 inches Hg (1016.0 mb)
[Sea-level pressure: 1015.8 mb]
Winds: from the S (180 degrees) at 5 MPH (4 knots; 2.1 m/s)
Visibility: 10 or more miles (16+ km)
Ceiling: at least 12,000 feet AGL
Clouds: sky clear below 12,000 feet AGL
Present Weather: automated observation with no human augmentation;
there may or may not be significant weather present at this time
KGIF 232353Z AUTO 18004KT 10SM CLR 27/23 A3000 RMK AO2 SLP158 60000 T02720228 10272 20244 56017

Conditions at: KGIF observed 23 July 2017  22:53 UTC
Temperature: 27.2°C (81°F)
Dewpoint: 22.8°C (73°F) [RH = 77%]
Pressure (altimeter): 30.01 inches Hg (1016.3 mb)
[Sea-level pressure: 1016.1 mb]
Winds: from the S (170 degrees) at 7 MPH (6 knots; 3.1 m/s)
Visibility: 10 or more miles (16+ km)
Ceiling: at least 12,000 feet AGL
Clouds: sky clear below 12,000 feet AGL
Present Weather: automated observation with no human augmentation;
there may or may not be significant weather present at this time
KGIF 232253Z AUTO 17006KT 10SM CLR 27/23 A3001 RMK AO2 SLP161 T02720228

Conditions at: KGIF observed 23 July 2017  21:53 UTC
Temperature: 27.2°C (81°F)
Dewpoint: 22.8°C (73°F) [RH = 77%]
Pressure (altimeter): 30.03 inches Hg (1017.0 mb)
[Sea-level pressure: 1016.7 mb]
Winds: calm
Visibility: 10 or more miles (16+ km)
Ceiling: at least 12,000 feet AGL
Clouds: sky clear below 12,000 feet AGL
Present Weather: automated observation with no human augmentation;
there may or may not be significant weather present at this time
KGIF 232153Z AUTO 00000KT 10SM CLR 27/23 A3003 RMK AO2 RAB2055E06 SLP167 P0000 T02720228

Conditions at: KGIF observed 23 July 2017  20:53 UTC
Temperature: 27.2°C (81°F)
Dewpoint: 22.8°C (73°F) [RH = 77%]
Pressure (altimeter): 30.05 inches Hg (1017.7 mb)
[Sea-level pressure: 1017.5 mb]
Winds: from the NNW (330 degrees) at 8 MPH (7 knots; 3.6 m/s)
Visibility: 10 or more miles (16+ km)
Ceiling: 11000 feet AGL
Clouds: few clouds at 6500 feet AGL
few clouds at 8000 feet AGL
broken clouds at 11000 feet AGL
Present Weather: automated observation with no human augmentation;
there may or may not be significant weather present at this time
KGIF 232053Z AUTO 33007KT 10SM FEW065 FEW080 BKN110 27/23 A3005 RMK AO2 SLP175 60000 T02720228 55015

Conditions at: KGIF observed 23 July 2017  19:53 UTC
Temperature: 26.7°C (80°F)
Dewpoint: 22.2°C (72°F) [RH = 76%]
Pressure (altimeter): 30.05 inches Hg (1017.7 mb)
[Sea-level pressure: 1017.4 mb]
Winds: from the ESE (110 degrees) at 6 MPH (5 knots; 2.6 m/s)
Visibility: 10 or more miles (16+ km)
Ceiling: at least 12,000 feet AGL
Clouds: sky clear below 12,000 feet AGL
Present Weather: automated observation with no human augmentation;
there may or may not be significant weather present at this time
KGIF 231953Z AUTO 11005KT 10SM CLR 27/22 A3005 RMK AO2 LTG DSNT SE SLP174 T02670222

Conditions at: KGIF observed 23 July 2017  18:53 UTC
Temperature: 26.1°C (79°F)
Dewpoint: 21.7°C (71°F) [RH = 77%]
Pressure (altimeter): 30.07 inches Hg (1018.4 mb)
[Sea-level pressure: 1018.0 mb]
Winds: from the WNW (300 degrees) at 5 MPH (4 knots; 2.1 m/s)
Visibility: 10 or more miles (16+ km)
Ceiling: at least 12,000 feet AGL
Clouds: sky clear below 12,000 feet AGL
Present Weather: automated observation with no human augmentation;
there may or may not be significant weather present at this time
KGIF 231853Z AUTO 30004KT 10SM CLR 26/22 A3007 RMK AO2 RAE09 SLP180 P0000 T02610217

Conditions at: KGIF observed 23 July 2017  17:53 UTC
Temperature: 24.4°C (76°F)
Dewpoint: 21.7°C (71°F) [RH = 85%]
Pressure (altimeter): 30.10 inches Hg (1019.4 mb)
[Sea-level pressure: 1019.0 mb]
Winds: from the W (280 degrees) at 6 MPH (5 knots; 2.6 m/s)
Visibility: 10 or more miles (16+ km)
Ceiling: 12000 feet AGL
Clouds: few clouds at 3800 feet AGL
few clouds at 9000 feet AGL
broken clouds at 12000 feet AGL
Present Weather: -RA  (light rain)
KGIF 231753Z AUTO 28005KT 10SM -RA FEW038 FEW090 BKN120 24/22 A3010 RMK AO2 RAB38 SLP190 P0000 60026 T02440217 10272 20244 55002

Conditions at: KGIF observed 23 July 2017  16:53 UTC
Temperature: 24.4°C (76°F)
Dewpoint: 22.2°C (72°F) [RH = 88%]
Pressure (altimeter): 30.09 inches Hg (1019.0 mb)
[Sea-level pressure: 1018.8 mb]
Winds: from the NNW (330 degrees) at 8 MPH (7 knots; 3.6 m/s)
Visibility: 10 or more miles (16+ km)
Ceiling: at least 12,000 feet AGL
Clouds: sky clear below 12,000 feet AGL
Present Weather: automated observation with no human augmentation;
there may or may not be significant weather present at this time
KGIF 231653Z AUTO 33007KT 10SM CLR 24/22 A3009 RMK AO2 RAE15 TSB07E29 SLP188 P0026 T02440222

Conditions at: KGIF observed 23 July 2017  16:35 UTC
Temperature: 24.4°C (76°F)
Dewpoint: 22.2°C (72°F) [RH = 88%]
Pressure (altimeter): 30.11 inches Hg (1019.7 mb)
Winds: from the NNW (330 degrees) at 6 MPH (5 knots; 2.6 m/s)
Visibility: 10 or more miles (16+ km)
Ceiling: at least 12,000 feet AGL
Clouds: few clouds at 1800 feet AGL
Present Weather: automated observation with no human augmentation;
there may or may not be significant weather present at this time
KGIF 231635Z AUTO 33005KT 10SM FEW018 24/22 A3011 RMK AO2 RAE15 TSB07E29 P0026 T02440222

Conditions at: KGIF observed 23 July 2017  16:24 UTC
Temperature: 25.0°C (77°F)
Dewpoint: 22.8°C (73°F) [RH = 88%]
Pressure (altimeter): 30.11 inches Hg (1019.7 mb)
Winds: from the N (350 degrees) at 5 MPH (4 knots; 2.1 m/s)
Visibility: 10 or more miles (16+ km)
Ceiling: at least 12,000 feet AGL
Clouds: scattered clouds at 1800 feet AGL
scattered clouds at 5500 feet AGL
Present Weather: TS  (thunderstorm)
KGIF 231624Z AUTO 35004KT 10SM TS SCT018 SCT055 25/23 A3011 RMK AO2 RAE15 TSB07 P0026 T02500228

Conditions at: KGIF observed 23 July 2017  16:11 UTC
Temperature: 24.4°C (76°F)
Dewpoint: 22.8°C (73°F) [RH = 91%]
Pressure (altimeter): 30.11 inches Hg (1019.7 mb)
Winds: from the N (350 degrees) at 3 MPH (3 knots; 1.6 m/s)
Visibility: 3 miles (5 km)
Ceiling: 1800 feet AGL
Clouds: few clouds at 1300 feet AGL
broken clouds at 1800 feet AGL
broken clouds at 5500 feet AGL
Present Weather: -TSRA BR  (light rain associated with thunderstorm(s), mist)
KGIF 231611Z AUTO 35003KT 3SM -TSRA BR FEW013 BKN018 BKN055 24/23 A3011 RMK AO2 TSB07 P0026 T02440228

Conditions at: KGIF observed 23 July 2017  16:09 UTC
Temperature: 24.4°C (76°F)
Dewpoint: 22.8°C (73°F) [RH = 91%]
Pressure (altimeter): 30.11 inches Hg (1019.7 mb)
Winds: calm
Visibility: 1.75 miles (2.82 km)
Ceiling: 1600 feet AGL
Clouds: overcast cloud deck at 1600 feet AGL
Present Weather: -TSRA BR  (light rain associated with thunderstorm(s), mist)
KGIF 231609Z AUTO 00000KT 1 3/4SM -TSRA BR OVC016 24/23 A3011 RMK AO2 VIS 1/2V5 TSB07 P0026 T02440228

Conditions at: KGIF observed 23 July 2017  16:00 UTC
Temperature: 25.0°C (77°F)
Dewpoint: 22.8°C (73°F) [RH = 88%]
Pressure (altimeter): 30.11 inches Hg (1019.7 mb)
Winds: from the NW (310 degrees) at 9 MPH (8 knots; 4.2 m/s)
Visibility: 1.25 miles (2.01 km)
Ceiling: 1600 feet AGL
Clouds: broken clouds at 1600 feet AGL
broken clouds at 4100 feet AGL
overcast cloud deck at 5500 feet AGL
Present Weather: +RA BR  (heavy rain, mist)
KGIF 231600Z AUTO 31008KT 1 1/4SM +RA BR BKN016 BKN041 OVC055 25/23 A3011 RMK AO2 P0019 T02500228

Conditions at: KGIF observed 23 July 2017  15:53 UTC
Temperature: 26.1°C (79°F)
Dewpoint: 23.3°C (74°F) [RH = 85%]
Pressure (altimeter): 30.11 inches Hg (1019.7 mb)
[Sea-level pressure: 1019.2 mb]
Winds: from the NW (310 degrees) at 10 MPH (9 knots; 4.7 m/s)
Visibility: 10 or more miles (16+ km)
Ceiling: 1800 feet AGL
Clouds: scattered clouds at 1300 feet AGL
broken clouds at 1800 feet AGL
overcast cloud deck at 5500 feet AGL
Present Weather: -RA  (light rain)
KGIF 231553Z AUTO 31009KT 10SM -RA SCT013 BKN018 OVC055 26/23 A3011 RMK AO2 RAE30B47 SLP192 P0000 T02610233

Conditions at: KGIF observed 23 July 2017  15:48 UTC
Temperature: 27.0°C (81°F)
Dewpoint: 23.0°C (73°F) [RH = 79%]
Pressure (altimeter): 30.11 inches Hg (1019.7 mb)
Winds: from the WNW (300 degrees) at 9 MPH (8 knots; 4.2 m/s)
Visibility: 10 or more miles (16+ km)
Ceiling: 1800 feet AGL
Clouds: scattered clouds at 1300 feet AGL
broken clouds at 1800 feet AGL
broken clouds at 3700 feet AGL
Present Weather: -RA  (light rain)
KGIF 231548Z AUTO 30008KT 10SM -RA SCT013 BKN018 BKN037 27/23 A3011 RMK AO2 RAE30B47 P0000

Conditions at: KGIF observed 23 July 2017  14:53 UTC
Temperature: 26.7°C (80°F)
Dewpoint: 22.8°C (73°F) [RH = 79%]
Pressure (altimeter): 30.09 inches Hg (1019.0 mb)
[Sea-level pressure: 1018.6 mb]
Winds: from the SSW (210 degrees) at 7 MPH (6 knots; 3.1 m/s)
Visibility: 10 or more miles (16+ km)
Ceiling: at least 12,000 feet AGL
Clouds: sky clear below 12,000 feet AGL
Present Weather: -RA  (light rain)
KGIF 231453Z AUTO 21006KT 10SM -RA CLR 27/23 A3009 RMK AO2 LTG DSNT NW RAB38 SLP186 P0000 60000 T02670228 51010

Conditions at: KGIF observed 23 July 2017  13:53 UTC
Temperature: 27.2°C (81°F)
Dewpoint: 22.2°C (72°F) [RH = 74%]
Pressure (altimeter): 30.08 inches Hg (1018.7 mb)
[Sea-level pressure: 1018.4 mb]
Winds: from the SSW (210 degrees) at 5 MPH (4 knots; 2.1 m/s)
Visibility: 10 or more miles (16+ km)
Ceiling: at least 12,000 feet AGL
Clouds: sky clear below 12,000 feet AGL
Present Weather: automated observation with no human augmentation;
there may or may not be significant weather present at this time
KGIF 231353Z AUTO 21004KT 10SM CLR 27/22 A3008 RMK AO2 SLP184 T02720222

Conditions at: KGIF observed 23 July 2017  12:53 UTC
Temperature: 26.1°C (79°F)
Dewpoint: 21.7°C (71°F) [RH = 77%]
Pressure (altimeter): 30.08 inches Hg (1018.7 mb)
[Sea-level pressure: 1018.4 mb]
Winds: from the SSW (200 degrees) at 3 MPH (3 knots; 1.6 m/s)
Visibility: 10 or more miles (16+ km)
Ceiling: at least 12,000 feet AGL
Clouds: sky clear below 12,000 feet AGL
Present Weather: automated observation with no human augmentation;
there may or may not be significant weather present at this time
KGIF 231253Z AUTO 20003KT 10SM CLR 26/22 A3008 RMK AO2 SLP184 T02610217

Conditions at: KGIF observed 23 July 2017  11:53 UTC
Temperature: 25.0°C (77°F)
Dewpoint: 22.2°C (72°F) [RH = 84%]
Pressure (altimeter): 30.06 inches Hg (1018.0 mb)
[Sea-level pressure: 1017.5 mb]
Winds: from the S (170 degrees) at 6 MPH (5 knots; 2.6 m/s)
Visibility: 10 or more miles (16+ km)
Ceiling: at least 12,000 feet AGL
Clouds: sky clear below 12,000 feet AGL
Present Weather: automated observation with no human augmentation;
there may or may not be significant weather present at this time
KGIF 231153Z AUTO 17005KT 10SM CLR 25/22 A3006 RMK AO2 SLP175 T02500222 10250 20244 53008

Conditions at: KGIF observed 23 July 2017  10:53 UTC
Temperature: 24.4°C (76°F)
Dewpoint: 22.2°C (72°F) [RH = 88%]
Pressure (altimeter): 30.04 inches Hg (1017.4 mb)
[Sea-level pressure: 1017.0 mb]
Winds: from the S (190 degrees) at 7 MPH (6 knots; 3.1 m/s)
Visibility: 10 or more miles (16+ km)
Ceiling: at least 12,000 feet AGL
Clouds: sky clear below 12,000 feet AGL
Present Weather: automated observation with no human augmentation;
there may or may not be significant weather present at this time
KGIF 231053Z AUTO 19006KT 10SM CLR 24/22 A3004 RMK AO2 SLP170 T02440222

Conditions at: KGIF observed 23 July 2017  09:53 UTC
Temperature: 24.4°C (76°F)
Dewpoint: 22.2°C (72°F) [RH = 88%]
Pressure (altimeter): 30.04 inches Hg (1017.4 mb)
[Sea-level pressure: 1017.0 mb]
Winds: from the SSW (200 degrees) at 5 MPH (4 knots; 2.1 m/s)
Visibility: 10 or more miles (16+ km)
Ceiling: at least 12,000 feet AGL
Clouds: sky clear below 12,000 feet AGL
Present Weather: automated observation with no human augmentation;
there may or may not be significant weather present at this time
KGIF 230953Z AUTO 20004KT 10SM CLR 24/22 A3004 RMK AO2 SLP170 T02440222

Conditions at: KGIF observed 23 July 2017  08:53 UTC
Temperature: 24.4°C (76°F)
Dewpoint: 21.7°C (71°F) [RH = 85%]
Pressure (altimeter): 30.03 inches Hg (1017.0 mb)
[Sea-level pressure: 1016.7 mb]
Winds: from the S (190 degrees) at 6 MPH (5 knots; 2.6 m/s)
Visibility: 10 or more miles (16+ km)
Ceiling: at least 12,000 feet AGL
Clouds: sky clear below 12,000 feet AGL
Present Weather: automated observation with no human augmentation;
there may or may not be significant weather present at this time
KGIF 230853Z AUTO 19005KT 10SM CLR 24/22 A3003 RMK AO2 SLP167 T02440217 56014

Conditions at: KGIF observed 23 July 2017  07:53 UTC
Temperature: 24.4°C (76°F)
Dewpoint: 22.2°C (72°F) [RH = 88%]
Pressure (altimeter): 30.04 inches Hg (1017.4 mb)
[Sea-level pressure: 1017.0 mb]
Winds: from the S (180 degrees) at 5 MPH (4 knots; 2.1 m/s)
Visibility: 10 or more miles (16+ km)
Ceiling: at least 12,000 feet AGL
Clouds: sky clear below 12,000 feet AGL
Present Weather: automated observation with no human augmentation;
there may or may not be significant weather present at this time
KGIF 230753Z AUTO 18004KT 10SM CLR 24/22 A3004 RMK AO2 SLP170 T02440222

Conditions at: KGIF observed 23 July 2017  06:53 UTC
Temperature: 24.4°C (76°F)
Dewpoint: 22.8°C (73°F) [RH = 91%]
Pressure (altimeter): 30.05 inches Hg (1017.7 mb)
[Sea-level pressure: 1017.5 mb]
Winds: from the S (170 degrees) at 9 MPH (8 knots; 4.2 m/s)
Visibility: 10 or more miles (16+ km)
Ceiling: at least 12,000 feet AGL
Clouds: sky clear below 12,000 feet AGL
Present Weather: automated observation with no human augmentation;
there may or may not be significant weather present at this time
KGIF 230653Z AUTO 17008KT 10SM CLR 24/23 A3005 RMK AO2 SLP175 T02440228

Conditions at: KGIF observed 23 July 2017  05:53 UTC
Temperature: 25.0°C (77°F)
Dewpoint: 22.8°C (73°F) [RH = 88%]
Pressure (altimeter): 30.07 inches Hg (1018.4 mb)
[Sea-level pressure: 1018.1 mb]
Winds: from the SSE (160 degrees) at 5 MPH (4 knots; 2.1 m/s)
Visibility: 10 or more miles (16+ km)
Ceiling: at least 12,000 feet AGL
Clouds: sky clear below 12,000 feet AGL
Present Weather: automated observation with no human augmentation;
there may or may not be significant weather present at this time
KGIF 230553Z AUTO 16004KT 10SM CLR 25/23 A3007 RMK AO2 SLP181 T02500228 10256 20244 50003

Conditions at: KGIF observed 23 July 2017  04:53 UTC
Temperature: 24.4°C (76°F)
Dewpoint: 22.8°C (73°F) [RH = 91%]
Pressure (altimeter): 30.08 inches Hg (1018.7 mb)
[Sea-level pressure: 1018.4 mb]
Winds: calm
Visibility: 10 or more miles (16+ km)
Ceiling: at least 12,000 feet AGL
Clouds: sky clear below 12,000 feet AGL
Present Weather: automated observation with no human augmentation;
there may or may not be significant weather present at this time
KGIF 230453Z AUTO 00000KT 10SM CLR 24/23 A3008 RMK AO2 SLP184 T02440228 403110239

Conditions at: KGIF observed 23 July 2017  03:53 UTC
Temperature: 25.0°C (77°F)
Dewpoint: 22.8°C (73°F) [RH = 88%]
Pressure (altimeter): 30.07 inches Hg (1018.4 mb)
[Sea-level pressure: 1018.0 mb]
Winds: from the ESE (120 degrees) at 5 MPH (4 knots; 2.1 m/s)
Visibility: 10 or more miles (16+ km)
Ceiling: at least 12,000 feet AGL
Clouds: sky clear below 12,000 feet AGL
Present Weather: automated observation with no human augmentation;
there may or may not be significant weather present at this time
KGIF 230353Z AUTO 12004KT 10SM CLR 25/23 A3007 RMK AO2 SLP180 T02500228

Conditions at: KGIF observed 23 July 2017  02:53 UTC
Temperature: 25.0°C (77°F)
Dewpoint: 22.2°C (72°F) [RH = 84%]
Pressure (altimeter): 30.06 inches Hg (1018.0 mb)
[Sea-level pressure: 1017.7 mb]
Winds: calm
Visibility: 10 or more miles (16+ km)
Ceiling: at least 12,000 feet AGL
Clouds: sky clear below 12,000 feet AGL
Present Weather: automated observation with no human augmentation;
there may or may not be significant weather present at this time
KGIF 230253Z AUTO 00000KT 10SM CLR 25/22 A3006 RMK AO2 SLP177 T02500222 56004

Conditions at: KGIF observed 23 July 2017  01:53 UTC
Temperature: 25.0°C (77°F)
Dewpoint: 22.2°C (72°F) [RH = 84%]
Pressure (altimeter): 30.07 inches Hg (1018.4 mb)
[Sea-level pressure: 1017.9 mb]
Winds: from the SW (230 degrees) at 3 MPH (3 knots; 1.6 m/s)
Visibility: 10 or more miles (16+ km)
Ceiling: at least 12,000 feet AGL
Clouds: sky clear below 12,000 feet AGL
Present Weather: automated observation with no human augmentation;
there may or may not be significant weather present at this time
KGIF 230153Z AUTO 23003KT 10SM CLR 25/22 A3007 RMK AO2 SLP179 T02500222

Conditions at: KGIF observed 23 July 2017  00:53 UTC
Temperature: 25.0°C (77°F)
Dewpoint: 22.2°C (72°F) [RH = 84%]
Pressure (altimeter): 30.06 inches Hg (1018.0 mb)
[Sea-level pressure: 1017.8 mb]
Winds: from the SSW (200 degrees) at 5 MPH (4 knots; 2.1 m/s)
Visibility: 10 or more miles (16+ km)
Ceiling: at least 12,000 feet AGL
Clouds: sky clear below 12,000 feet AGL
Present Weather: automated observation with no human augmentation;
there may or may not be significant weather present at this time
KGIF 230053Z AUTO 20004KT 10SM CLR 25/22 A3006 RMK AO2 SLP178 T02500222

Conditions at: KGIF observed 23 July 2017  00:05 UTC
Temperature: 25.6°C (78°F)
Dewpoint: 22.2°C (72°F) [RH = 82%]
Pressure (altimeter): 30.07 inches Hg (1018.4 mb)
Winds: from the S (180 degrees) at 7 MPH (6 knots; 3.1 m/s)
Visibility: 10 or more miles (16+ km)
Ceiling: at least 12,000 feet AGL
Clouds: few clouds at 1700 feet AGL
scattered clouds at 2500 feet AGL
Present Weather: automated observation with no human augmentation;
there may or may not be significant weather present at this time
KGIF 230005Z AUTO 18006KT 10SM FEW017 SCT025 26/22 A3007 RMK AO2 T02560222

Conditions at: KGIF observed 22 July 2017  23:53 UTC
Temperature: 25.6°C (78°F)
Dewpoint: 22.2°C (72°F) [RH = 82%]
Pressure (altimeter): 30.07 inches Hg (1018.4 mb)
[Sea-level pressure: 1018.2 mb]
Winds: from the SSE (150 degrees) at 6 MPH (5 knots; 2.6 m/s)
Visibility: 10 or more miles (16+ km)
Ceiling: 1700 feet AGL
Clouds: few clouds at 1000 feet AGL
broken clouds at 1700 feet AGL
broken clouds at 2400 feet AGL
Present Weather: automated observation with no human augmentation;
there may or may not be significant weather present at this time
KGIF 222353Z AUTO 15005KT 10SM FEW010 BKN017 BKN024 26/22 A3007 RMK AO2 SLP182 60000 T02560222 10272 20256 58001

Conditions at: KGIF observed 22 July 2017  23:42 UTC
Temperature: 25.6°C (78°F)
Dewpoint: 22.8°C (73°F) [RH = 85%]
Pressure (altimeter): 30.08 inches Hg (1018.7 mb)
Winds: from the SSE (150 degrees) at 7 MPH (6 knots; 3.1 m/s)
Visibility: 10 or more miles (16+ km)
Ceiling: 1600 feet AGL
Clouds: scattered clouds at 1200 feet AGL
overcast cloud deck at 1600 feet AGL
Present Weather: automated observation with no human augmentation;
there may or may not be significant weather present at this time
KGIF 222342Z AUTO 15006KT 10SM SCT012 OVC016 26/23 A3008 RMK AO2 LTG DSNT S AND SW T02560228

Conditions at: KGIF observed 22 July 2017  23:33 UTC
Temperature: 25.6°C (78°F)
Dewpoint: 22.8°C (73°F) [RH = 85%]
Pressure (altimeter): 30.08 inches Hg (1018.7 mb)
Winds: from the SE (130 degrees) at 8 MPH (7 knots; 3.6 m/s)
Visibility: 10 or more miles (16+ km)
Ceiling: 1200 feet AGL
Clouds: broken clouds at 1200 feet AGL
overcast cloud deck at 1800 feet AGL
Present Weather: automated observation with no human augmentation;
there may or may not be significant weather present at this time
KGIF 222333Z AUTO 13007KT 10SM BKN012 OVC018 26/23 A3008 RMK AO2 LTG DSNT S-W T02560228

Conditions at: KGIF observed 22 July 2017  23:13 UTC
Temperature: 26.1°C (79°F)
Dewpoint: 22.8°C (73°F) [RH = 82%]
Pressure (altimeter): 30.09 inches Hg (1019.0 mb)
Winds: from the SE (130 degrees) at 8 MPH (7 knots; 3.6 m/s)
Visibility: 10 or more miles (16+ km)
Ceiling: 2000 feet AGL
Clouds: few clouds at 1100 feet AGL
broken clouds at 2000 feet AGL
Present Weather: automated observation with no human augmentation;
there may or may not be significant weather present at this time
KGIF 222313Z AUTO 13007KT 10SM FEW011 BKN020 26/23 A3009 RMK AO2 LTG DSNT S AND SW T02610228

Conditions at: KGIF observed 22 July 2017  22:53 UTC
Temperature: 26.1°C (79°F)
Dewpoint: 22.8°C (73°F) [RH = 82%]
Pressure (altimeter): 30.07 inches Hg (1018.4 mb)
[Sea-level pressure: 1018.2 mb]
Winds: from the E (90 degrees) at 7 MPH (6 knots; 3.1 m/s)
Visibility: 10 or more miles (16+ km)
Ceiling: at least 12,000 feet AGL
Clouds: sky clear below 12,000 feet AGL
Present Weather: automated observation with no human augmentation;
there may or may not be significant weather present at this time
KGIF 222253Z AUTO 09006KT 10SM CLR 26/23 A3007 RMK AO2 LTG DSNT S AND SW SLP182 T02610228

Conditions at: KGIF observed 22 July 2017  21:53 UTC
Temperature: 26.7°C (80°F)
Dewpoint: 22.8°C (73°F) [RH = 79%]
Pressure (altimeter): 30.08 inches Hg (1018.7 mb)
[Sea-level pressure: 1018.3 mb]
Winds: from the ENE (70 degrees) at 8 MPH (7 knots; 3.6 m/s)
Visibility: 10 or more miles (16+ km)
Ceiling: at least 12,000 feet AGL
Clouds: few clouds at 2000 feet AGL
Present Weather: automated observation with no human augmentation;
there may or may not be significant weather present at this time
KGIF 222153Z AUTO 07007KT 10SM FEW020 27/23 A3008 RMK AO2 SLP183 T02670228

Conditions at: KGIF observed 22 July 2017  21:04 UTC
Temperature: 26.7°C (80°F)
Dewpoint: 23.3°C (74°F) [RH = 82%]
Pressure (altimeter): 30.08 inches Hg (1018.7 mb)
Winds: from the NE (40 degrees) at 7 MPH (6 knots; 3.1 m/s)
Visibility: 10 or more miles (16+ km)
Ceiling: at least 12,000 feet AGL
Clouds: scattered clouds at 1200 feet AGL
Present Weather: automated observation with no human augmentation;
there may or may not be significant weather present at this time
KGIF 222104Z AUTO 04006KT 10SM SCT012 27/23 A3008 RMK AO2 T02670233

Conditions at: KGIF observed 22 July 2017  20:53 UTC
Temperature: 26.7°C (80°F)
Dewpoint: 22.8°C (73°F) [RH = 79%]
Pressure (altimeter): 30.08 inches Hg (1018.7 mb)
[Sea-level pressure: 1018.2 mb]
Winds: from the NE (50 degrees) at 6 MPH (5 knots; 2.6 m/s)
Visibility: 10 or more miles (16+ km)
Ceiling: 1100 feet AGL
Clouds: broken clouds at 1100 feet AGL
Present Weather: automated observation with no human augmentation;
there may or may not be significant weather present at this time
KGIF 222053Z AUTO 05005KT 10SM BKN011 27/23 A3008 RMK AO2 LTG DSNT W SLP182 60000 T02670228 56011

Conditions at: KGIF observed 22 July 2017  19:53 UTC
Temperature: 26.1°C (79°F)
Dewpoint: 22.8°C (73°F) [RH = 82%]
Pressure (altimeter): 30.08 inches Hg (1018.7 mb)
[Sea-level pressure: 1018.2 mb]
Winds: calm
Visibility: 10 or more miles (16+ km)
Ceiling: at least 12,000 feet AGL
Clouds: sky clear below 12,000 feet AGL
Present Weather: automated observation with no human augmentation;
there may or may not be significant weather present at this time
KGIF 221953Z AUTO 00000KT 10SM CLR 26/23 A3008 RMK AO2 SLP182 T02610228

Conditions at: KGIF observed 22 July 2017  19:16 UTC
Temperature: 25.6°C (78°F)
Dewpoint: 22.2°C (72°F) [RH = 82%]
Pressure (altimeter): 30.08 inches Hg (1018.7 mb)
Winds: from the E (80 degrees) at 6 MPH (5 knots; 2.6 m/s)
Visibility: 10 or more miles (16+ km)
Ceiling: at least 12,000 feet AGL
Clouds: sky clear below 12,000 feet AGL
Present Weather: automated observation with no human augmentation;
there may or may not be significant weather present at this time
KGIF 221916Z AUTO 08005KT 10SM CLR 26/22 A3008 RMK AO2 LTG DSNT E AND SE T02560222

Conditions at: KGIF observed 22 July 2017  18:53 UTC
Temperature: 25.6°C (78°F)
Dewpoint: 22.8°C (73°F) [RH = 85%]
Pressure (altimeter): 30.09 inches Hg (1019.0 mb)
[Sea-level pressure: 1018.8 mb]
Winds: from the N (10 degrees) at 5 MPH (4 knots; 2.1 m/s)
Visibility: 10 or more miles (16+ km)
Ceiling: at least 12,000 feet AGL
Clouds: few clouds at 6000 feet AGL
Present Weather: VCTS  (thunderstorm in vicinity)
KGIF 221853Z AUTO 01004KT 10SM VCTS FEW060 26/23 A3009 RMK AO2 LTG DSNT N-SE RAB10E27 SLP188 P0000 T02560228

Conditions at: KGIF observed 22 July 2017  18:16 UTC
Temperature: 26.1°C (79°F)
Dewpoint: 22.8°C (73°F) [RH = 82%]
Pressure (altimeter): 30.11 inches Hg (1019.7 mb)
Winds: from the NNW (340 degrees) at 7 MPH (6 knots; 3.1 m/s)
Visibility: 10 or more miles (16+ km)
Ceiling: 5500 feet AGL
Clouds: few clouds at 4100 feet AGL
broken clouds at 5500 feet AGL
Present Weather: VCTS -RA  (thunderstorm in vicinity, light rain)
KGIF 221816Z AUTO 34006KT 10SM VCTS -RA FEW041 BKN055 26/23 A3011 RMK AO2 LTG DSNT NE-SE RAB10 P0000 T02610228

Conditions at: KGIF observed 22 July 2017  17:53 UTC
Temperature: 26.7°C (80°F)
Dewpoint: 22.8°C (73°F) [RH = 79%]
Pressure (altimeter): 30.11 inches Hg (1019.7 mb)
[Sea-level pressure: 1019.3 mb]
Winds: from the NW (310 degrees) at 6 MPH (5 knots; 2.6 m/s)
Visibility: 10 or more miles (16+ km)
Ceiling: at least 12,000 feet AGL
Clouds: sky clear below 12,000 feet AGL
Present Weather: automated observation with no human augmentation;
there may or may not be significant weather present at this time
KGIF 221753Z AUTO 31005KT 10SM CLR 27/23 A3011 RMK AO2 LTG DSNT N-SE TSE1658 SLP193 T02670228 10311 20250 53001

Conditions at: KGIF observed 22 July 2017  17:50 UTC
Temperature: 27.0°C (81°F)
Dewpoint: 23.0°C (73°F) [RH = 79%]
Pressure (altimeter): 30.11 inches Hg (1019.7 mb)
Winds: from the NW (310 degrees) at 7 MPH (6 knots; 3.1 m/s)
Visibility: 10 or more miles (16+ km)
Ceiling: at least 12,000 feet AGL
Clouds: sky clear below 12,000 feet AGL
Present Weather: automated observation with no human augmentation;
there may or may not be significant weather present at this time
KGIF 221750Z AUTO 31006KT 10SM CLR 27/23 A3011 RMK AO2 LTG DSNT N-SE TSE1658

Conditions at: KGIF observed 22 July 2017  17:12 UTC
Temperature: 27.2°C (81°F)
Dewpoint: 22.8°C (73°F) [RH = 77%]
Pressure (altimeter): 30.11 inches Hg (1019.7 mb)
Winds: from the NW (320 degrees) at 8 MPH (7 knots; 3.6 m/s)
Visibility: 10 or more miles (16+ km)
Ceiling: at least 12,000 feet AGL
Clouds: sky clear below 12,000 feet AGL
Present Weather: VCTS  (thunderstorm in vicinity)
KGIF 221712Z AUTO 32007KT 10SM VCTS CLR 27/23 A3011 RMK AO2 LTG DSNT ALQDS TSE1658 T02720228

Conditions at: KGIF observed 22 July 2017  17:04 UTC
Temperature: 27.8°C (82°F)
Dewpoint: 21.7°C (71°F) [RH = 69%]
Pressure (altimeter): 30.09 inches Hg (1019.0 mb)
Winds: variable direction winds at 5 MPH (4 knots; 2.1 m/s)
Visibility: 10 or more miles (16+ km)
Ceiling: at least 12,000 feet AGL
Clouds: sky clear below 12,000 feet AGL
Present Weather: automated observation with no human augmentation;
there may or may not be significant weather present at this time
KGIF 221704Z AUTO VRB04KT 10SM CLR 28/22 A3009 RMK AO2 LTG DSNT ALQDS TSE1658 T02780217

Conditions at: KGIF observed 22 July 2017  16:53 UTC
Temperature: 27.8°C (82°F)
Dewpoint: 21.1°C (70°F) [RH = 67%]
Pressure (altimeter): 30.09 inches Hg (1019.0 mb)
[Sea-level pressure: 1018.8 mb]
Winds: from the S (190 degrees) at 7 MPH (6 knots; 3.1 m/s)
Visibility: 10 or more miles (16+ km)
Ceiling: at least 12,000 feet AGL
Clouds: sky clear below 12,000 feet AGL
Present Weather: TS  (thunderstorm)
KGIF 221653Z AUTO 19006KT 10SM TS CLR 28/21 A3009 RMK AO2 LTG DSNT N AND SE AND NW TSB06E21B32 SLP188 T02780211

Conditions at: KGIF observed 22 July 2017  16:38 UTC
Temperature: 28.3°C (83°F)
Dewpoint: 21.7°C (71°F) [RH = 67%]
Pressure (altimeter): 30.10 inches Hg (1019.4 mb)
Winds: from the S (170 degrees) at 9 MPH (8 knots; 4.2 m/s)
Visibility: 10 or more miles (16+ km)
Ceiling: at least 12,000 feet AGL
Clouds: few clouds at 7500 feet AGL
few clouds at 12000 feet AGL
Present Weather: TS  (thunderstorm)
KGIF 221638Z AUTO 17008KT 10SM TS FEW075 FEW120 28/22 A3010 RMK AO2 LTG DSNT ALQDS TSB06E21B32 T02830217

Conditions at: KGIF observed 22 July 2017  16:21 UTC
Temperature: 27.8°C (82°F)
Dewpoint: 21.7°C (71°F) [RH = 69%]
Pressure (altimeter): 30.09 inches Hg (1019.0 mb)
Winds: from the S (170 degrees) at 8 MPH (7 knots; 3.6 m/s)
Visibility: 10 or more miles (16+ km)
Ceiling: 7500 feet AGL
Clouds: scattered clouds at 2400 feet AGL
scattered clouds at 4300 feet AGL
broken clouds at 7500 feet AGL
Present Weather: VCTS  (thunderstorm in vicinity)
KGIF 221621Z AUTO 17007KT 10SM VCTS SCT024 SCT043 BKN075 28/22 A3009 RMK AO2 LTG DSNT N AND S AND NW TSB06E21 T02780217

Conditions at: KGIF observed 22 July 2017  16:12 UTC
Temperature: 27.2°C (81°F)
Dewpoint: 23.3°C (74°F) [RH = 79%]
Pressure (altimeter): 30.10 inches Hg (1019.4 mb)
Winds: from the SSE (150 degrees) at 10 MPH (9 knots; 4.7 m/s)
Visibility: 10 or more miles (16+ km)
Ceiling: 2300 feet AGL
Clouds: broken clouds at 2300 feet AGL
broken clouds at 4000 feet AGL
overcast cloud deck at 11000 feet AGL
Present Weather: TS  (thunderstorm)
KGIF 221612Z AUTO 15009KT 10SM TS BKN023 BKN040 OVC110 27/23 A3010 RMK AO2 LTG DSNT S-NW TSB06 T02720233

Conditions at: KGIF observed 22 July 2017  15:53 UTC
Temperature: 30.0°C (86°F)
Dewpoint: 23.3°C (74°F) [RH = 67%]
Pressure (altimeter): 30.10 inches Hg (1019.4 mb)
[Sea-level pressure: 1019.2 mb]
Winds: from the SSW (210 degrees) at 9 MPH (8 knots; 4.2 m/s)
Visibility: 10 or more miles (16+ km)
Ceiling: 2800 feet AGL
Clouds: few clouds at 2300 feet AGL
broken clouds at 2800 feet AGL
Present Weather: VCTS  (thunderstorm in vicinity)
KGIF 221553Z AUTO 21008KT 10SM VCTS FEW023 BKN028 30/23 A3010 RMK AO2 LTG DSNT W AND NW SLP192 T03000233

Conditions at: KGIF observed 22 July 2017  15:23 UTC
Temperature: 30.0°C (86°F)
Dewpoint: 23.3°C (74°F) [RH = 67%]
Pressure (altimeter): 30.11 inches Hg (1019.7 mb)
Winds: from the S (180 degrees) at 9 MPH (8 knots; 4.2 m/s)
Visibility: 10 or more miles (16+ km)
Ceiling: at least 12,000 feet AGL
Clouds: few clouds at 2100 feet AGL
few clouds at 2700 feet AGL
Present Weather: automated observation with no human augmentation;
there may or may not be significant weather present at this time
KGIF 221523Z AUTO 18008KT 10SM FEW021 FEW027 30/23 A3011 RMK AO2 LTG DSNT W AND NW T03000233

Conditions at: KGIF observed 22 July 2017  14:53 UTC
Temperature: 30.0°C (86°F)
Dewpoint: 23.9°C (75°F) [RH = 70%]
Pressure (altimeter): 30.12 inches Hg (1020.1 mb)
[Sea-level pressure: 1019.6 mb]
Winds: from the S (180 degrees) at 9 MPH (8 knots; 4.2 m/s)
Visibility: 10 or more miles (16+ km)
Ceiling: 2000 feet AGL
Clouds: broken clouds at 2000 feet AGL
broken clouds at 2600 feet AGL
Present Weather: automated observation with no human augmentation;
there may or may not be significant weather present at this time
KGIF 221453Z AUTO 18008KT 10SM BKN020 BKN026 30/24 A3012 RMK AO2 LTG DSNT SW AND W SLP196 T03000239 50006

Conditions at: KGIF observed 22 July 2017  13:53 UTC
Temperature: 27.2°C (81°F)
Dewpoint: 23.9°C (75°F) [RH = 82%]
Pressure (altimeter): 30.12 inches Hg (1020.1 mb)
[Sea-level pressure: 1019.9 mb]
Winds: from the S (190 degrees) at 6 MPH (5 knots; 2.6 m/s)
Visibility: 10 or more miles (16+ km)
Ceiling: at least 12,000 feet AGL
Clouds: sky clear below 12,000 feet AGL
Present Weather: automated observation with no human augmentation;
there may or may not be significant weather present at this time
KGIF 221353Z AUTO 19005KT 10SM CLR 27/24 A3012 RMK AO2 SLP199 T02720239

Conditions at: KGIF observed 22 July 2017  12:53 UTC
Temperature: 26.1°C (79°F)
Dewpoint: 23.3°C (74°F) [RH = 85%]
Pressure (altimeter): 30.11 inches Hg (1019.7 mb)
[Sea-level pressure: 1019.3 mb]
Winds: from the S (170 degrees) at 7 MPH (6 knots; 3.1 m/s)
Visibility: 10 or more miles (16+ km)
Ceiling: at least 12,000 feet AGL
Clouds: sky clear below 12,000 feet AGL
Present Weather: automated observation with no human augmentation;
there may or may not be significant weather present at this time
KGIF 221253Z AUTO 17006KT 10SM CLR 26/23 A3011 RMK AO2 SLP193 T02610233

Conditions at: KGIF observed 22 July 2017  11:53 UTC
Temperature: 25.0°C (77°F)
Dewpoint: 23.3°C (74°F) [RH = 90%]
Pressure (altimeter): 30.10 inches Hg (1019.4 mb)
[Sea-level pressure: 1019.0 mb]
Winds: from the S (180 degrees) at 7 MPH (6 knots; 3.1 m/s)
Visibility: 10 or more miles (16+ km)
Ceiling: at least 12,000 feet AGL
Clouds: sky clear below 12,000 feet AGL
Present Weather: automated observation with no human augmentation;
there may or may not be significant weather present at this time
KGIF 221153Z AUTO 18006KT 10SM CLR 25/23 A3010 RMK AO2 SLP190 70014 T02500233 10250 20239 53018

Conditions at: KGIF observed 22 July 2017  10:53 UTC
Temperature: 24.4°C (76°F)
Dewpoint: 23.3°C (74°F) [RH = 94%]
Pressure (altimeter): 30.07 inches Hg (1018.4 mb)
[Sea-level pressure: 1018.1 mb]
Winds: from the S (170 degrees) at 7 MPH (6 knots; 3.1 m/s)
Visibility: 10 or more miles (16+ km)
Ceiling: at least 12,000 feet AGL
Clouds: sky clear below 12,000 feet AGL
Present Weather: automated observation with no human augmentation;
there may or may not be significant weather present at this time
KGIF 221053Z AUTO 17006KT 10SM CLR 24/23 A3007 RMK AO2 SLP181 T02440233

Conditions at: KGIF observed 22 July 2017  09:53 UTC
Temperature: 24.4°C (76°F)
Dewpoint: 22.8°C (73°F) [RH = 91%]
Pressure (altimeter): 30.06 inches Hg (1018.0 mb)
[Sea-level pressure: 1017.6 mb]
Winds: from the S (190 degrees) at 7 MPH (6 knots; 3.1 m/s)
Visibility: 10 or more miles (16+ km)
Ceiling: at least 12,000 feet AGL
Clouds: sky clear below 12,000 feet AGL
Present Weather: automated observation with no human augmentation;
there may or may not be significant weather present at this time
KGIF 220953Z AUTO 19006KT 10SM CLR 24/23 A3006 RMK AO2 SLP176 T02440228